Información del aeropuerto TNCE

Información de pista
Pista 06 Longitud 4265 ft Anchura 100 ft
Elevación 129 ft Umbral 0 ft Rumbo 50
Pista 24 Longitud 4265 ft Anchura 100 ft
Elevación 95 ft Umbral 0 ft Rumbo 230
Frecuencias del aeropuerto
Tipo INFO Nombre FIS Frecuencia 118.1 MHZ
Radioayudas del aeropuerto
Tipo NDB Nombre St.eEstatius Frecuencia 235 KHZ
Información meteorológica del aeropuerto y NOTAM
ADDS - METARS form results

(0128 UTC 06 May 2021)
Data provider http://aviationweather.gov/metar/data/
 
METAR text: TNCE 060055Z AUTO 06015KT //// // ///////// 26/21 Q1018 RE//
Conditions at: TNCE (FDR ARPT/ORANJES, AN) observed 0055 UTC 06 May 2021
Temperature: 26.0°C (79°F)
Dewpoint: 21.0°C (70°F) [RH = 74%]
Pressure (altimeter): 30.06 inches Hg (1018.0 mb)
Winds: from the ENE (60 degrees) at 17 MPH (15 knots; 7.7 m/s)
Visibility: missing
Ceiling: unknown
Clouds: missing
Weather: no significant weather observed at this time